Time;durP1;ratioP1;P1;durP2;ratioP2;P2;SDS_P1;SDS_P2;PMS_P1;PMS_P2;Temp;Humidity;BMP_temperature;BMP_pressure;BME280_temperature;BME280_humidity;BME280_pressure;Samples;Min_cycle;Max_cycle;Signal;HPM_P1;HPM_P2
2022/07/04 00:02:00;;;;;;;6.40;5.80;;;16.80;99.90;;;;;;5054297;28;20433;-77
2022/07/04 00:04:28;;;;;;;6.60;6.10;;;16.80;99.90;;;;;;5054451;28;20505;-76
2022/07/04 00:06:56;;;;;;;6.80;6.20;;;16.70;99.90;;;;;;5053993;28;20449;-76
2022/07/04 00:09:24;;;;;;;6.30;5.70;;;16.70;99.90;;;;;;5052445;28;21080;-76
2022/07/04 00:11:52;;;;;;;6.70;6.10;;;16.70;99.90;;;;;;5054023;28;20519;-76
2022/07/04 00:14:21;;;;;;;6.77;6.17;;;16.70;99.90;;;;;;5052228;28;20481;-76
2022/07/04 00:16:49;;;;;;;7.20;6.33;;;16.60;99.90;;;;;;5054027;28;20521;-77
2022/07/04 00:19:18;;;;;;;8.10;7.30;;;16.60;99.90;;;;;;5052435;28;20829;-77
2022/07/04 00:21:46;;;;;;;7.30;5.87;;;16.60;99.90;;;;;;5054195;28;20488;-77
2022/07/04 00:24:14;;;;;;;7.20;6.60;;;16.60;99.90;;;;;;5053907;28;20411;-77
2022/07/04 00:26:43;;;;;;;10.90;7.77;;;16.50;99.90;;;;;;5052173;28;20497;-76
2022/07/04 00:29:11;;;;;;;7.80;7.10;;;16.50;99.90;;;;;;5053599;28;20473;-77
2022/07/04 00:31:39;;;;;;;8.20;7.50;;;16.50;99.90;;;;;;5053753;28;20440;-76
2022/07/04 00:34:07;;;;;;;6.87;6.27;;;16.50;99.90;;;;;;5053367;28;20456;-76
2022/07/04 00:36:37;;;;;;;7.60;6.90;;;16.40;99.90;;;;;;5052885;28;20442;-76
2022/07/04 00:39:05;;;;;;;8.20;7.33;;;16.40;99.90;;;;;;5052286;28;20473;-76
2022/07/04 00:41:33;;;;;;;7.80;7.07;;;16.40;99.90;;;;;;5052023;28;20940;-76
2022/07/04 00:44:02;;;;;;;7.40;6.80;;;16.40;99.90;;;;;;5051983;28;20491;-77
2022/07/04 00:46:40;;;;;;;8.30;7.50;;;16.40;99.90;;;;;;5051964;28;20927;-77
2022/07/04 00:49:09;;;;;;;8.90;8.10;;;16.30;99.90;;;;;;5051871;28;20469;-76
2022/07/04 00:51:40;;;;;;;7.80;7.03;;;16.30;99.90;;;;;;5053131;28;20468;-76
2022/07/04 00:54:11;;;;;;;8.37;7.53;;;16.30;99.90;;;;;;5051876;28;20442;-76
2022/07/04 00:56:41;;;;;;;8.53;7.73;;;16.30;99.90;;;;;;5051906;28;20428;-76
2022/07/04 00:59:09;;;;;;;8.80;7.90;;;16.20;99.90;;;;;;5053077;28;20432;-77
2022/07/04 01:01:38;;;;;;;9.40;8.50;;;16.20;99.90;;;;;;5051878;28;20536;-75
2022/07/04 01:04:07;;;;;;;7.97;7.00;;;16.20;99.90;;;;;;5053217;28;20427;-77
2022/07/04 01:06:35;;;;;;;9.90;8.93;;;16.20;99.90;;;;;;5053890;28;20417;-77
2022/07/04 01:09:05;;;;;;;9.30;8.40;;;16.10;99.90;;;;;;5052921;28;20532;-76
2022/07/04 01:11:34;;;;;;;10.93;10.03;;;16.10;99.90;;;;;;5053361;28;20412;-77
2022/07/04 01:14:02;;;;;;;9.93;9.00;;;16.10;99.90;;;;;;5052034;28;20420;-76
2022/07/04 01:16:30;;;;;;;10.87;9.87;;;16.10;99.90;;;;;;5052225;28;20443;-77
2022/07/04 01:18:58;;;;;;;10.03;9.13;;;16.00;99.90;;;;;;5053037;28;20470;-77
2022/07/04 01:21:28;;;;;;;9.90;9.10;;;16.00;99.90;;;;;;5053550;28;20427;-75
2022/07/04 01:23:56;;;;;;;9.77;8.87;;;16.00;99.90;;;;;;5053059;28;20486;-75
2022/07/04 01:26:25;;;;;;;9.40;8.53;;;15.90;99.90;;;;;;5053050;28;20438;-77
2022/07/04 01:28:53;;;;;;;9.97;8.97;;;15.90;99.90;;;;;;5052009;28;20806;-77
2022/07/04 01:31:21;;;;;;;9.47;8.67;;;15.90;99.90;;;;;;5052704;28;20438;-75
2022/07/04 01:33:49;;;;;;;10.07;9.00;;;15.90;99.90;;;;;;5052870;28;20529;-77
2022/07/04 01:36:17;;;;;;;9.40;8.60;;;15.80;99.90;;;;;;5051596;28;20987;-76
2022/07/04 01:38:47;;;;;;;9.80;8.70;;;15.80;99.90;;;;;;5052968;28;20794;-77
2022/07/04 01:41:15;;;;;;;10.93;9.97;;;15.80;99.90;;;;;;5053004;28;20439;-77
2022/07/04 01:43:43;;;;;;;10.23;9.33;;;15.80;99.90;;;;;;5052900;28;20476;-76
2022/07/04 01:46:11;;;;;;;10.33;9.43;;;15.80;99.90;;;;;;5052890;28;20405;-77
2022/07/04 01:48:39;;;;;;;12.03;9.93;;;15.70;99.90;;;;;;5054604;28;20450;-76
2022/07/04 01:51:08;;;;;;;10.93;9.83;;;15.70;99.90;;;;;;5055198;28;20417;-76
2022/07/04 01:53:38;;;;;;;10.93;10.03;;;15.70;99.90;;;;;;5056268;28;20901;-76
2022/07/04 01:56:07;;;;;;;10.83;9.93;;;15.70;99.90;;;;;;5054896;28;20467;-76
2022/07/04 01:58:35;;;;;;;11.07;10.07;;;15.70;99.90;;;;;;5056081;28;20412;-76
2022/07/04 02:03:49;;;;;;;10.03;9.13;;;15.60;99.90;;;;;;5056449;28;20468;-77
2022/07/04 02:06:17;;;;;;;10.10;9.20;;;15.60;99.90;;;;;;5055025;28;20416;-76
2022/07/04 02:13:00;;;;;;;11.00;9.43;;;15.60;99.90;;;;;;5056278;28;20507;-76
2022/07/04 02:14:20;;;;;;;11.17;10.27;;;15.60;99.90;;;;;;5055750;28;20449;-77
2022/07/04 02:16:48;;;;;;;12.03;10.80;;;15.50;99.90;;;;;;5056005;28;20445;-76
2022/07/04 02:19:16;;;;;;;14.33;11.47;;;15.50;99.90;;;;;;5055013;28;20555;-77
2022/07/04 02:21:44;;;;;;;10.83;9.83;;;15.50;99.90;;;;;;5054998;28;20464;-76
2022/07/04 02:24:13;;;;;;;11.60;10.40;;;15.50;99.90;;;;;;5056049;28;21018;-77
2022/07/04 02:26:42;;;;;;;13.27;12.00;;;15.50;99.90;;;;;;5056827;28;20926;-77
2022/07/04 02:29:10;;;;;;;10.70;9.73;;;15.50;99.90;;;;;;5055364;28;20848;-77
2022/07/04 02:31:38;;;;;;;11.60;9.90;;;15.40;99.90;;;;;;5056605;28;20466;-77
2022/07/04 02:34:06;;;;;;;10.57;9.77;;;15.40;99.90;;;;;;5056545;28;20434;-77
2022/07/04 02:36:34;;;;;;;10.87;9.77;;;15.40;99.90;;;;;;5056935;28;20520;-77
2022/07/04 02:39:04;;;;;;;11.40;10.50;;;15.40;99.90;;;;;;5056376;28;20464;-77
2022/07/04 02:41:33;;;;;;;12.93;10.40;;;15.30;99.90;;;;;;5055273;28;20412;-77
2022/07/04 02:44:02;;;;;;;11.17;10.07;;;15.30;99.90;;;;;;5055176;28;20452;-77
2022/07/04 02:46:32;;;;;;;12.33;9.33;;;15.30;99.90;;;;;;5055393;28;20488;-77
2022/07/04 02:49:00;;;;;;;12.10;10.93;;;15.30;99.90;;;;;;5054989;28;20460;-77
2022/07/04 02:51:28;;;;;;;11.70;9.80;;;15.20;99.90;;;;;;5055402;28;20413;-77
2022/07/04 02:53:57;;;;;;;11.43;10.33;;;15.20;99.90;;;;;;5054990;28;20430;-77
2022/07/04 02:56:25;;;;;;;11.13;8.97;;;15.20;99.90;;;;;;5053699;28;20476;-77
2022/07/04 02:58:54;;;;;;;10.10;9.20;;;15.20;99.90;;;;;;5054267;28;20489;-77
2022/07/04 03:01:23;;;;;;;9.27;8.37;;;15.10;99.90;;;;;;5053744;28;20478;-77
2022/07/04 03:03:51;;;;;;;10.03;9.13;;;15.10;99.90;;;;;;5054936;28;20451;-77
2022/07/04 03:06:19;;;;;;;14.60;8.93;;;15.10;99.90;;;;;;5053581;28;20825;-77
2022/07/04 03:08:48;;;;;;;9.70;8.60;;;15.10;99.90;;;;;;5053516;28;20505;-77
2022/07/04 03:11:16;;;;;;;9.50;8.50;;;15.10;99.90;;;;;;5055001;28;20442;-77
2022/07/04 03:13:44;;;;;;;11.30;8.50;;;15.10;99.90;;;;;;5053467;28;20503;-77
2022/07/04 03:16:12;;;;;;;9.40;8.60;;;15.10;99.90;;;;;;5054608;28;20452;-77
2022/07/04 03:18:42;;;;;;;9.27;8.47;;;15.10;99.90;;;;;;5054657;28;20435;-77
2022/07/04 03:21:10;;;;;;;9.47;8.40;;;15.10;99.90;;;;;;5054574;28;20424;-78
2022/07/04 03:23:40;;;;;;;10.10;8.97;;;15.00;99.90;;;;;;5053355;28;20459;-77
2022/07/04 03:26:11;;;;;;;8.83;8.03;;;15.10;99.90;;;;;;5054806;28;20412;-77
2022/07/04 03:28:39;;;;;;;10.77;9.10;;;15.00;99.90;;;;;;5055524;28;20480;-77
2022/07/04 03:31:08;;;;;;;8.67;7.87;;;15.10;99.90;;;;;;5054671;28;20458;-77
2022/07/04 03:33:36;;;;;;;11.47;8.40;;;15.00;99.90;;;;;;5053184;28;20533;-77
2022/07/04 03:36:06;;;;;;;9.43;8.63;;;15.00;99.90;;;;;;5054229;28;20466;-77
2022/07/04 03:38:34;;;;;;;9.93;8.93;;;15.00;99.90;;;;;;5054215;28;20974;-77
2022/07/04 03:41:02;;;;;;;10.40;8.80;;;15.00;99.90;;;;;;5054373;28;20442;-77
2022/07/04 03:43:30;;;;;;;9.53;8.73;;;15.00;99.90;;;;;;5054411;28;20917;-77
2022/07/04 03:45:59;;;;;;;9.57;8.77;;;15.00;99.90;;;;;;5054651;28;20470;-76
2022/07/04 03:48:27;;;;;;;11.63;10.43;;;15.00;99.90;;;;;;5054468;28;20554;-77
2022/07/04 03:50:55;;;;;;;12.03;11.03;;;15.00;99.90;;;;;;5054509;28;20409;-76
2022/07/04 03:53:25;;;;;;;11.17;10.37;;;15.00;99.90;;;;;;5052867;28;20933;-76
2022/07/04 03:55:53;;;;;;;12.67;11.57;;;15.00;99.90;;;;;;5054488;28;20421;-77
2022/07/04 03:58:21;;;;;;;11.80;10.57;;;15.00;99.90;;;;;;5054159;28;20943;-76
2022/07/04 04:00:50;;;;;;;12.10;10.87;;;14.90;99.90;;;;;;5052537;28;20468;-77
2022/07/04 04:06:16;;;;;;;11.43;10.33;;;14.90;99.90;;;;;;4995910;28;20816;-75
2022/07/04 04:08:45;;;;;;;13.03;11.43;;;14.90;99.90;;;;;;5038999;28;20525;-76
2022/07/04 04:11:14;;;;;;;13.33;11.90;;;14.90;99.90;;;;;;5053042;28;20938;-77
2022/07/04 04:13:42;;;;;;;16.50;13.80;;;14.90;99.90;;;;;;5052395;28;20417;-77
2022/07/04 04:16:10;;;;;;;11.40;10.40;;;14.80;99.90;;;;;;5053714;28;20565;-77
2022/07/04 04:18:39;;;;;;;12.17;11.10;;;14.80;99.90;;;;;;5052163;28;20499;-77
2022/07/04 04:21:07;;;;;;;11.47;10.27;;;14.80;99.90;;;;;;5052192;28;20428;-77
2022/07/04 04:23:35;;;;;;;11.40;10.27;;;14.80;99.90;;;;;;5052238;28;20826;-77
2022/07/04 04:26:04;;;;;;;11.07;10.07;;;14.90;99.90;;;;;;5053540;28;20434;-77
2022/07/04 04:28:33;;;;;;;10.30;9.40;;;14.90;99.90;;;;;;5053772;28;20434;-79
2022/07/04 04:31:01;;;;;;;11.27;10.17;;;14.90;99.90;;;;;;5053625;28;20445;-77
2022/07/04 04:33:30;;;;;;;10.60;9.50;;;14.90;99.90;;;;;;5053829;28;20442;-77
2022/07/04 04:35:58;;;;;;;11.40;9.40;;;14.90;99.90;;;;;;5053247;28;20525;-78
2022/07/04 04:38:26;;;;;;;10.27;9.37;;;14.90;99.90;;;;;;5052897;28;20500;-76
2022/07/04 04:40:54;;;;;;;9.80;7.97;;;14.90;99.90;;;;;;5052264;28;20421;-77
2022/07/04 04:43:24;;;;;;;10.30;9.10;;;14.90;99.90;;;;;;5053612;28;20442;-77
2022/07/04 04:45:52;;;;;;;11.07;10.00;;;15.00;99.90;;;;;;5053729;28;20438;-78
2022/07/04 04:48:21;;;;;;;9.70;8.30;;;15.00;99.90;;;;;;5052402;28;20504;-77
2022/07/04 04:50:49;;;;;;;9.53;8.47;;;15.00;99.90;;;;;;5053977;28;20466;-77
2022/07/04 04:53:17;;;;;;;8.33;7.50;;;15.00;99.90;;;;;;5052647;28;20442;-77
2022/07/04 04:55:45;;;;;;;9.70;7.77;;;15.10;99.90;;;;;;5054092;28;20413;-77
2022/07/04 04:58:13;;;;;;;8.90;8.00;;;15.10;99.90;;;;;;5053875;28;20466;-77
2022/07/04 05:00:43;;;;;;;9.10;6.90;;;15.10;99.90;;;;;;5052376;28;20462;-76
2022/07/04 05:03:31;;;;;;;7.33;6.40;;;15.20;99.90;;;;;;5051911;28;20448;-77
2022/07/04 05:06:00;;;;;;;9.20;7.40;;;15.20;99.90;;;;;;5051923;28;20462;-76
2022/07/04 05:08:28;;;;;;;8.03;7.30;;;15.20;99.90;;;;;;5052989;28;20852;-76
2022/07/04 05:10:56;;;;;;;7.87;6.20;;;15.20;99.90;;;;;;5051690;28;20956;-75
2022/07/04 05:13:24;;;;;;;6.40;5.90;;;15.20;99.90;;;;;;5053005;28;20441;-76
2022/07/04 05:15:54;;;;;;;6.90;6.00;;;15.30;99.90;;;;;;5051710;28;20428;-77
2022/07/04 05:18:22;;;;;;;7.63;6.03;;;15.30;99.90;;;;;;5051734;28;20472;-76
2022/07/04 05:20:50;;;;;;;6.97;5.60;;;15.40;99.90;;;;;;5053841;28;20433;-77
2022/07/04 05:23:18;;;;;;;6.33;5.67;;;15.40;99.90;;;;;;5055660;28;20844;-77
2022/07/04 05:25:48;;;;;;;5.63;5.13;;;15.50;99.90;;;;;;5057610;28;21024;-76
2022/07/04 05:28:16;;;;;;;7.20;5.67;;;15.50;99.90;;;;;;5057621;28;20433;-77
2022/07/04 05:30:44;;;;;;;5.73;5.00;;;15.50;99.90;;;;;;5057410;28;20967;-77
2022/07/04 05:33:14;;;;;;;5.60;5.10;;;15.60;99.90;;;;;;5058062;28;20448;-76
2022/07/04 05:35:42;;;;;;;5.67;5.17;;;15.70;99.90;;;;;;5057558;28;20533;-77
2022/07/04 05:38:10;;;;;;;7.43;4.87;;;15.80;99.90;;;;;;5057315;28;20448;-76
2022/07/04 05:40:38;;;;;;;6.53;4.63;;;15.90;99.90;;;;;;5056086;28;20552;-77
2022/07/04 05:43:07;;;;;;;6.50;4.43;;;16.10;99.90;;;;;;5056263;28;20436;-76
2022/07/04 05:45:35;;;;;;;8.20;4.70;;;16.20;99.90;;;;;;5056088;28;20512;-76
2022/07/04 05:48:04;;;;;;;5.00;4.00;;;16.40;99.90;;;;;;5057160;28;20452;-76
2022/07/04 05:50:33;;;;;;;5.90;3.60;;;16.70;99.90;;;;;;5057635;28;20539;-77
2022/07/04 05:53:02;;;;;;;4.63;4.00;;;16.90;99.90;;;;;;5055779;28;20454;-76
2022/07/04 05:55:30;;;;;;;5.13;3.93;;;17.20;99.90;;;;;;5055720;28;20947;-77
2022/07/04 05:57:59;;;;;;;3.60;2.67;;;17.40;99.90;;;;;;5057419;28;20476;-76
2022/07/04 06:00:27;;;;;;;5.20;3.00;;;17.60;99.90;;;;;;5057000;28;20475;-76
2022/07/04 06:02:55;;;;;;;4.03;2.83;;;17.90;99.90;;;;;;5056363;28;20438;-77
2022/07/04 06:05:23;;;;;;;4.60;2.97;;;18.20;99.90;;;;;;5056163;28;21010;-76
2022/07/04 06:07:53;;;;;;;4.03;2.60;;;18.50;99.90;;;;;;5055083;28;20430;-76
2022/07/04 06:10:21;;;;;;;3.60;2.10;;;18.70;99.90;;;;;;5056375;28;20454;-77
2022/07/04 06:12:50;;;;;;;5.67;3.00;;;19.00;99.90;;;;;;5056244;28;20829;-77
2022/07/04 06:15:18;;;;;;;4.30;2.40;;;19.20;99.90;;;;;;5054531;28;20469;-76
2022/07/04 06:17:46;;;;;;;4.70;2.40;;;19.50;99.90;;;;;;5055855;28;20502;-76
2022/07/04 06:20:15;;;;;;;4.03;2.37;;;19.80;99.90;;;;;;5054437;28;21006;-77
2022/07/04 06:22:44;;;;;;;5.03;2.13;;;19.90;99.90;;;;;;5055814;28;20472;-76
2022/07/04 06:25:15;;;;;;;4.77;2.33;;;20.10;99.90;;;;;;5054790;28;20469;-76
2022/07/04 06:27:44;;;;;;;4.80;2.40;;;20.30;99.90;;;;;;5055957;28;20418;-77
2022/07/04 06:30:14;;;;;;;5.37;2.60;;;20.40;99.90;;;;;;5055906;28;20990;-77
2022/07/04 06:32:44;;;;;;;3.97;2.13;;;20.60;99.90;;;;;;5055709;28;20948;-77
2022/07/04 06:37:58;;;;;;;5.77;2.20;;;20.90;99.90;;;;;;5055513;28;20544;-77
2022/07/04 06:40:28;;;;;;;3.20;1.90;;;21.10;99.90;;;;;;5055505;28;20450;-77
2022/07/04 06:42:57;;;;;;;2.30;1.90;;;21.20;99.90;;;;;;5055631;28;20939;-76
2022/07/04 06:45:25;;;;;;;3.37;1.90;;;21.40;99.90;;;;;;5054188;28;20438;-75
2022/07/04 06:47:53;;;;;;;3.00;1.83;;;21.60;99.90;;;;;;5055470;28;20442;-75
2022/07/04 06:50:22;;;;;;;2.27;1.60;;;21.70;99.90;;;;;;5055289;28;20512;-75
2022/07/04 06:53:08;;;;;;;2.17;1.47;;;21.80;99.90;;;;;;5054083;28;20854;-76
2022/07/04 06:55:38;;;;;;;4.70;1.80;;;21.90;99.60;;;;;;5055368;28;20453;-75
2022/07/04 06:58:07;;;;;;;2.80;1.50;;;21.90;99.30;;;;;;5055339;28;20979;-76
2022/07/04 07:00:36;;;;;;;2.67;1.60;;;22.00;99.10;;;;;;5055142;28;20823;-75
2022/07/04 07:03:05;;;;;;;4.53;1.50;;;22.10;98.80;;;;;;5053813;28;20453;-76
2022/07/04 07:05:36;;;;;;;2.60;1.57;;;22.20;98.50;;;;;;5053957;28;20544;-77
2022/07/04 07:08:26;;;;;;;3.53;1.60;;;22.30;98.10;;;;;;5054902;28;20971;-76
2022/07/04 07:10:55;;;;;;;3.57;1.87;;;22.40;97.90;;;;;;5055305;28;20445;-76
2022/07/04 07:13:24;;;;;;;4.17;2.20;;;22.50;97.70;;;;;;5054875;28;20436;-76
2022/07/04 07:15:52;;;;;;;3.47;2.20;;;22.60;97.60;;;;;;5054905;28;20469;-76
2022/07/04 07:18:20;;;;;;;3.30;2.10;;;22.70;97.40;;;;;;5053540;28;20493;-77
2022/07/04 07:20:48;;;;;;;3.87;2.30;;;22.90;97.40;;;;;;5054863;28;20978;-76
2022/07/04 07:23:16;;;;;;;2.13;1.53;;;23.00;97.20;;;;;;5055059;28;20448;-75
2022/07/04 07:25:44;;;;;;;3.60;1.70;;;23.10;97.00;;;;;;5054376;28;20442;-77
2022/07/04 07:28:14;;;;;;;2.63;1.73;;;23.20;96.80;;;;;;5055016;28;20450;-76
2022/07/04 07:30:42;;;;;;;3.20;1.60;;;23.30;96.60;;;;;;5054451;28;20984;-75
2022/07/04 07:33:11;;;;;;;3.47;1.80;;;23.40;96.20;;;;;;5055031;28;20972;-77
2022/07/04 07:35:39;;;;;;;3.50;1.70;;;23.40;96.00;;;;;;5053230;28;20454;-77
2022/07/04 07:38:07;;;;;;;3.07;1.67;;;23.40;95.80;;;;;;5053148;28;20465;-76
2022/07/04 07:40:35;;;;;;;1.93;1.63;;;23.50;95.60;;;;;;5053479;28;20462;-76
2022/07/04 07:43:03;;;;;;;3.50;1.23;;;23.50;95.40;;;;;;5054411;28;20465;-76
2022/07/04 07:45:33;;;;;;;2.33;1.60;;;23.50;95.20;;;;;;5054162;28;20430;-77
2022/07/04 07:48:02;;;;;;;4.13;1.50;;;23.70;95.00;;;;;;5054357;28;20807;-76
2022/07/04 07:50:30;;;;;;;3.00;1.80;;;23.70;95.00;;;;;;5054605;28;20458;-77
2022/07/04 07:52:58;;;;;;;3.00;1.73;;;23.80;94.90;;;;;;5054582;28;20797;-76
2022/07/04 07:55:27;;;;;;;2.90;1.83;;;23.90;94.70;;;;;;5054472;28;20795;-76
2022/07/04 07:57:55;;;;;;;3.17;1.50;;;24.00;94.50;;;;;;5054236;28;20938;-76
2022/07/04 08:00:23;;;;;;;4.23;1.80;;;24.10;94.20;;;;;;5052892;28;20987;-77
2022/07/04 08:05:59;;;;;;;3.13;2.10;;;24.20;94.00;;;;;;5052960;28;20478;-76
2022/07/04 08:08:27;;;;;;;3.10;1.67;;;24.30;94.00;;;;;;5054129;28;20430;-76
2022/07/04 08:10:56;;;;;;;3.00;1.53;;;24.30;93.90;;;;;;5054195;28;20796;-77
2022/07/04 08:13:24;;;;;;;2.90;1.70;;;24.40;93.70;;;;;;5054448;28;20457;-76
2022/07/04 08:15:52;;;;;;;3.40;1.60;;;24.40;93.50;;;;;;5053999;28;20453;-76
2022/07/04 08:18:22;;;;;;;3.30;1.67;;;24.40;93.30;;;;;;5054057;28;20470;-77
2022/07/04 08:20:50;;;;;;;4.13;1.40;;;24.40;93.20;;;;;;5052483;28;20472;-76
2022/07/04 08:23:39;;;;;;;3.60;1.70;;;24.30;93.10;;;;;;5054306;28;20855;-76
2022/07/04 08:26:24;;;;;;;2.87;1.40;;;24.20;93.00;;;;;;5052487;28;21008;-77
2022/07/04 08:28:52;;;;;;;4.13;1.83;;;24.20;92.80;;;;;;5053730;28;20533;-76
2022/07/04 08:31:21;;;;;;;3.07;1.50;;;24.20;92.90;;;;;;5054114;28;20946;-76
2022/07/04 08:34:11;;;;;;;4.50;1.50;;;24.20;93.00;;;;;;5054269;28;20454;-76
2022/07/04 08:36:39;;;;;;;4.23;1.50;;;24.30;93.00;;;;;;5054032;28;20438;-76
2022/07/04 08:39:07;;;;;;;3.47;1.50;;;24.50;92.80;;;;;;5054159;28;20580;-75
2022/07/04 08:41:39;;;;;;;3.30;1.73;;;24.50;92.60;;;;;;5053973;28;20442;-76
2022/07/04 08:44:10;;;;;;;3.70;1.60;;;24.60;92.80;;;;;;5053951;28;20488;-76
2022/07/04 08:46:40;;;;;;;2.90;1.60;;;24.70;92.50;;;;;;5053903;28;20422;-76
2022/07/04 08:49:18;;;;;;;2.43;1.50;;;24.70;92.30;;;;;;5053911;28;20465;-77
2022/07/04 08:51:56;;;;;;;2.53;1.50;;;24.90;92.20;;;;;;5052230;28;20442;-75
2022/07/04 08:59:58;;;;;;;6.80;1.70;;;24.70;91.60;;;;;;5057425;28;21049;-76
2022/07/04 09:02:29;;;;;;;2.07;1.87;;;24.70;91.40;;;;;;5056382;28;20465;-75
2022/07/04 09:05:00;;;;;;;3.10;2.07;;;24.60;91.30;;;;;;5057226;28;20442;-76
2022/07/04 09:07:29;;;;;;;3.20;1.70;;;24.50;91.20;;;;;;5057468;28;20418;-76
2022/07/04 09:09:58;;;;;;;3.70;1.77;;;24.50;91.10;;;;;;5057198;28;20457;-76
2022/07/04 09:12:27;;;;;;;2.73;1.30;;;24.40;90.90;;;;;;5057411;28;20434;-76
2022/07/04 09:14:56;;;;;;;2.70;1.30;;;24.30;90.80;;;;;;5055782;28;20461;-76
2022/07/04 09:17:25;;;;;;;2.13;1.43;;;24.20;90.60;;;;;;5057230;28;20438;-76
2022/07/04 09:20:23;;;;;;;3.17;1.40;;;24.10;90.60;;;;;;5055948;28;20477;-76
2022/07/04 09:22:53;;;;;;;3.63;1.40;;;24.10;90.40;;;;;;5022550;28;20485;-76
2022/07/04 09:25:23;;;;;;;2.47;1.67;;;24.10;90.40;;;;;;5057303;28;20513;-76
2022/07/04 09:27:53;;;;;;;2.60;1.83;;;24.20;90.50;;;;;;5056496;28;20461;-76
2022/07/04 09:30:24;;;;;;;1.70;1.27;;;24.20;90.50;;;;;;5058064;28;20458;-76
2022/07/04 09:32:59;;;;;;;3.90;1.90;;;24.30;90.40;;;;;;5056323;28;20450;-77
2022/07/04 09:35:31;;;;;;;2.13;1.60;;;24.40;90.30;;;;;;5055837;28;20958;-76
2022/07/04 09:38:01;;;;;;;2.60;1.60;;;24.50;90.10;;;;;;5057290;28;20781;-76
2022/07/04 09:40:31;;;;;;;2.30;1.73;;;24.60;90.10;;;;;;5055717;28;20483;-76
2022/07/04 09:43:01;;;;;;;2.27;1.30;;;24.60;89.80;;;;;;5056537;28;20541;-76
2022/07/04 09:45:29;;;;;;;2.23;1.43;;;24.70;89.50;;;;;;5058485;28;20444;-75
2022/07/04 09:47:59;;;;;;;3.97;1.70;;;24.80;89.60;;;;;;5055942;28;20503;-76
2022/07/04 09:50:29;;;;;;;3.40;1.70;;;24.90;89.50;;;;;;5056793;28;20561;-75
2022/07/04 09:52:59;;;;;;;3.40;1.70;;;24.90;89.00;;;;;;5056942;28;20438;-76
2022/07/04 09:55:29;;;;;;;2.70;1.83;;;24.80;89.00;;;;;;5056730;28;20444;-77
2022/07/04 09:58:00;;;;;;;2.20;1.63;;;24.70;88.70;;;;;;5056882;28;20828;-76
2022/07/04 10:00:30;;;;;;;4.70;1.90;;;24.60;88.40;;;;;;5055073;28;20539;-76
2022/07/04 10:03:17;;;;;;;3.33;1.60;;;24.50;88.50;;;;;;5056981;28;20509;-76
2022/07/04 10:05:48;;;;;;;3.27;1.80;;;24.50;88.50;;;;;;5055267;28;20455;-76
2022/07/04 10:08:22;;;;;;;3.50;1.83;;;24.50;88.80;;;;;;5056679;28;20426;-76
2022/07/04 10:10:50;;;;;;;3.43;1.70;;;24.40;88.60;;;;;;5056197;28;20827;-76
2022/07/04 10:13:19;;;;;;;2.67;1.40;;;24.50;88.50;;;;;;5056691;28;20430;-75
2022/07/04 10:15:47;;;;;;;2.47;1.53;;;24.50;88.20;;;;;;5055927;28;20452;-75
2022/07/04 10:18:16;;;;;;;3.83;1.53;;;24.50;87.70;;;;;;5056161;28;20552;-75
2022/07/04 10:20:44;;;;;;;2.90;1.40;;;24.50;87.70;;;;;;5056214;28;20523;-76
2022/07/04 10:23:14;;;;;;;2.60;1.83;;;24.40;87.90;;;;;;5056400;28;20430;-76
2022/07/04 10:25:47;;;;;;;2.33;1.60;;;24.30;88.00;;;;;;5056156;28;20446;-76
2022/07/04 10:28:16;;;;;;;3.20;1.60;;;24.30;87.90;;;;;;5056449;28;20428;-76
2022/07/04 10:30:49;;;;;;;2.17;1.80;;;24.30;87.80;;;;;;5054608;28;20531;-76
2022/07/04 10:33:22;;;;;;;2.40;1.83;;;24.30;87.60;;;;;;5056105;28;20506;-76
2022/07/04 10:35:53;;;;;;;1.87;1.40;;;24.30;87.20;;;;;;5054427;28;20528;-76
2022/07/04 10:38:24;;;;;;;2.70;1.70;;;24.20;87.40;;;;;;5054402;28;20442;-76
2022/07/04 10:40:54;;;;;;;2.77;1.60;;;24.30;87.60;;;;;;5054156;28;20505;-77
2022/07/04 10:43:41;;;;;;;2.90;1.90;;;24.40;87.70;;;;;;5054459;28;20441;-76
2022/07/04 10:46:26;;;;;;;2.83;1.57;;;24.50;87.60;;;;;;5055902;28;20468;-77
2022/07/04 10:48:56;;;;;;;3.37;2.00;;;24.60;87.50;;;;;;5055559;28;20454;-75
2022/07/04 10:51:44;;;;;;;4.90;1.47;;;24.60;87.40;;;;;;5054318;28;20568;-75
2022/07/04 10:54:15;;;;;;;3.30;1.50;;;24.70;87.30;;;;;;5054022;28;20441;-75
2022/07/04 10:56:49;;;;;;;2.10;1.40;;;24.70;87.00;;;;;;5055803;28;20423;-76
2022/07/04 10:59:21;;;;;;;2.77;1.77;;;24.70;86.80;;;;;;5055604;28;20454;-77
2022/07/04 11:01:51;;;;;;;11.40;2.30;;;24.70;87.50;;;;;;5054079;28;20438;-75
2022/07/04 11:04:48;;;;;;;2.67;1.80;;;24.70;87.10;;;;;;5055460;28;20453;-76
2022/07/04 11:07:18;;;;;;;3.17;2.10;;;24.80;87.50;;;;;;5055196;28;20465;-75
2022/07/04 11:10:07;;;;;;;1.77;1.40;;;24.90;87.30;;;;;;5054349;28;20466;-77
2022/07/04 11:13:07;;;;;;;2.77;1.20;;;24.90;86.80;;;;;;5055311;28;20923;-75
2022/07/04 11:16:01;;;;;;;4.87;1.70;;;24.90;86.20;;;;;;5046778;28;20568;-75
2022/07/04 11:18:30;;;;;;;3.23;1.57;;;24.80;85.80;;;;;;5055371;28;20434;-76
2022/07/04 11:20:58;;;;;;;3.70;1.80;;;24.60;86.10;;;;;;5053201;28;20827;-76
2022/07/04 11:23:27;;;;;;;2.27;1.10;;;24.60;86.20;;;;;;5054990;28;20481;-75
2022/07/04 11:25:56;;;;;;;3.37;1.30;;;24.60;86.20;;;;;;5054792;28;20806;-76
2022/07/04 11:28:28;;;;;;;2.00;1.10;;;24.60;85.60;;;;;;5054947;28;20487;-77
2022/07/04 11:31:14;;;;;;;3.37;1.50;;;24.60;85.50;;;;;;5055200;28;20437;-76
2022/07/04 11:33:44;;;;;;;4.77;1.57;;;24.50;85.10;;;;;;5054523;28;20499;-76
2022/07/04 11:36:15;;;;;;;2.47;1.30;;;24.50;84.70;;;;;;5054881;28;21006;-75
2022/07/04 11:39:03;;;;;;;2.10;1.30;;;24.50;84.60;;;;;;5054495;28;20464;-76
2022/07/04 11:47:10;;;;;;;2.20;1.60;;;24.70;84.30;;;;;;5053461;28;20447;-76
2022/07/04 11:49:44;;;;;;;2.17;1.30;;;24.70;84.20;;;;;;5054681;28;20465;-76
2022/07/04 11:52:12;;;;;;;2.27;1.30;;;24.70;84.00;;;;;;5054734;28;20430;-76
2022/07/04 11:54:42;;;;;;;3.73;1.60;;;24.70;83.90;;;;;;5054350;28;20875;-76
2022/07/04 11:57:23;;;;;;;3.07;1.60;;;24.70;84.00;;;;;;5053348;28;20448;-75
2022/07/04 12:00:02;;;;;;;2.30;1.60;;;24.70;84.10;;;;;;5052944;28;20599;-77
2022/07/04 12:02:33;;;;;;;2.30;1.40;;;24.70;84.00;;;;;;5054058;28;20779;-76
2022/07/04 12:05:04;;;;;;;2.03;1.43;;;24.70;83.80;;;;;;5053875;28;20830;-76
2022/07/04 12:07:34;;;;;;;4.37;2.10;;;24.80;83.80;;;;;;5053941;28;20982;-76
2022/07/04 12:10:09;;;;;;;4.57;1.70;;;24.90;83.90;;;;;;5054165;28;20516;-76
2022/07/04 12:12:51;;;;;;;4.73;1.90;;;24.90;83.00;;;;;;5053887;28;20432;-76
2022/07/04 12:15:22;;;;;;;3.00;1.90;;;24.90;82.30;;;;;;5053836;28;20458;-77
2022/07/04 12:17:54;;;;;;;2.83;1.70;;;24.90;82.60;;;;;;5054260;28;20425;-76
2022/07/04 12:20:24;;;;;;;2.53;1.30;;;24.80;82.70;;;;;;5052311;28;20513;-76
2022/07/04 12:22:53;;;;;;;2.40;1.60;;;24.80;82.80;;;;;;5053855;28;20774;-76
2022/07/04 12:25:31;;;;;;;2.20;1.43;;;24.90;82.80;;;;;;5054033;28;20434;-76
2022/07/04 12:28:01;;;;;;;2.30;1.50;;;24.90;82.30;;;;;;5052452;28;20545;-76
2022/07/04 12:30:32;;;;;;;3.70;1.97;;;24.90;82.40;;;;;;5052454;28;20469;-76
2022/07/04 12:33:02;;;;;;;3.77;1.60;;;24.90;82.50;;;;;;5052945;28;20446;-76
2022/07/04 12:35:49;;;;;;;2.70;1.50;;;24.90;82.20;;;;;;5053543;28;20532;-76
2022/07/04 12:38:21;;;;;;;2.90;2.20;;;25.00;82.60;;;;;;5054304;28;20423;-76
2022/07/04 12:41:08;;;;;;;4.40;1.70;;;25.00;81.80;;;;;;5052404;28;20469;-76
2022/07/04 12:43:48;;;;;;;2.80;1.60;;;25.00;81.70;;;;;;5053926;28;20430;-76
2022/07/04 12:46:31;;;;;;;4.00;1.87;;;25.10;82.20;;;;;;5053806;28;20434;-77
2022/07/04 12:49:00;;;;;;;3.40;1.93;;;25.10;82.20;;;;;;5053981;28;20466;-76
2022/07/04 12:51:30;;;;;;;5.03;1.70;;;25.10;81.90;;;;;;5053726;28;20435;-75
2022/07/04 12:54:06;;;;;;;2.67;1.73;;;25.10;82.10;;;;;;5053284;28;20446;-76
2022/07/04 12:56:36;;;;;;;3.30;1.67;;;25.00;82.10;;;;;;5052065;28;20434;-76
2022/07/04 12:59:06;;;;;;;2.97;1.80;;;24.90;82.30;;;;;;5053685;28;20549;-76
2022/07/04 13:01:42;;;;;;;4.50;2.10;;;24.80;82.80;;;;;;5053401;28;20454;-75
2022/07/04 13:04:11;;;;;;;5.40;2.20;;;24.70;83.60;;;;;;5052102;28;20492;-76
2022/07/04 13:06:40;;;;;;;3.83;2.10;;;24.60;84.10;;;;;;5053313;28;20830;-77
2022/07/04 13:09:08;;;;;;;4.50;1.93;;;24.60;84.70;;;;;;5053466;28;20827;-77
2022/07/04 13:14:23;;;;;;;3.97;1.80;;;24.60;84.60;;;;;;5053316;28;20454;-75
2022/07/04 13:16:53;;;;;;;3.00;1.67;;;24.60;83.80;;;;;;5053342;28;20440;-76
2022/07/04 13:19:21;;;;;;;3.37;1.90;;;24.70;83.10;;;;;;5051784;28;20652;-76
2022/07/04 13:21:49;;;;;;;2.73;1.60;;;24.70;82.80;;;;;;5053508;28;20516;-76
2022/07/04 13:24:18;;;;;;;4.03;1.40;;;24.70;82.80;;;;;;5053026;28;20434;-76
2022/07/04 13:26:46;;;;;;;3.10;2.23;;;24.70;82.40;;;;;;5052996;28;20842;-76
2022/07/04 13:29:17;;;;;;;2.30;1.40;;;24.70;81.70;;;;;;5053029;28;20454;-76